sensor_id;sensor_type;location;lat;lon;timestamp;temperature;humidity
7194;DHT22;3638;48.820;9.244;2022-11-20T00:00:39;5.90;99.90
7194;DHT22;3638;48.820;9.244;2022-11-20T00:03:06;5.80;99.90
7194;DHT22;3638;48.820;9.244;2022-11-20T00:05:34;5.70;99.90
7194;DHT22;3638;48.820;9.244;2022-11-20T00:08:01;5.50;99.90
7194;DHT22;3638;48.820;9.244;2022-11-20T00:10:28;5.40;99.90
7194;DHT22;3638;48.820;9.244;2022-11-20T00:12:55;5.50;99.90
7194;DHT22;3638;48.820;9.244;2022-11-20T00:15:24;5.50;99.90
7194;DHT22;3638;48.820;9.244;2022-11-20T00:17:51;5.50;99.90
7194;DHT22;3638;48.820;9.244;2022-11-20T00:20:18;5.50;99.90
7194;DHT22;3638;48.820;9.244;2022-11-20T00:22:46;5.60;99.90
7194;DHT22;3638;48.820;9.244;2022-11-20T00:25:14;5.60;99.90
7194;DHT22;3638;48.820;9.244;2022-11-20T00:27:41;5.60;99.90
7194;DHT22;3638;48.820;9.244;2022-11-20T00:30:08;5.50;99.90
7194;DHT22;3638;48.820;9.244;2022-11-20T00:32:35;5.50;99.90
7194;DHT22;3638;48.820;9.244;2022-11-20T00:35:03;5.40;99.90
7194;DHT22;3638;48.820;9.244;2022-11-20T00:37:31;5.40;99.90
7194;DHT22;3638;48.820;9.244;2022-11-20T00:39:59;5.50;99.90
7194;DHT22;3638;48.820;9.244;2022-11-20T00:42:26;5.50;99.90
7194;DHT22;3638;48.820;9.244;2022-11-20T00:44:53;5.60;99.90
7194;DHT22;3638;48.820;9.244;2022-11-20T00:47:19;5.50;99.90
7194;DHT22;3638;48.820;9.244;2022-11-20T00:49:46;5.50;99.90
7194;DHT22;3638;48.820;9.244;2022-11-20T00:52:13;5.50;99.90
7194;DHT22;3638;48.820;9.244;2022-11-20T00:54:40;5.70;99.90
7194;DHT22;3638;48.820;9.244;2022-11-20T00:57:08;5.60;99.90
7194;DHT22;3638;48.820;9.244;2022-11-20T00:59:35;5.70;99.90
7194;DHT22;3638;48.820;9.244;2022-11-20T01:02:02;5.80;99.90
7194;DHT22;3638;48.820;9.244;2022-11-20T01:04:29;5.80;99.90
7194;DHT22;3638;48.820;9.244;2022-11-20T01:06:56;5.80;99.90
7194;DHT22;3638;48.820;9.244;2022-11-20T01:09:23;5.80;99.90
7194;DHT22;3638;48.820;9.244;2022-11-20T01:11:50;5.70;99.90
7194;DHT22;3638;48.820;9.244;2022-11-20T01:14:19;5.70;99.90
7194;DHT22;3638;48.820;9.244;2022-11-20T01:16:48;5.80;99.90
7194;DHT22;3638;48.820;9.244;2022-11-20T01:19:18;6.10;99.90
7194;DHT22;3638;48.820;9.244;2022-11-20T01:21:48;5.70;99.90
7194;DHT22;3638;48.820;9.244;2022-11-20T01:24:18;5.70;99.90
7194;DHT22;3638;48.820;9.244;2022-11-20T01:26:48;5.50;99.90
7194;DHT22;3638;48.820;9.244;2022-11-20T01:29:19;5.50;99.90
7194;DHT22;3638;48.820;9.244;2022-11-20T01:31:47;5.30;99.90
7194;DHT22;3638;48.820;9.244;2022-11-20T01:34:16;5.40;99.90
7194;DHT22;3638;48.820;9.244;2022-11-20T01:36:44;5.40;99.90
7194;DHT22;3638;48.820;9.244;2022-11-20T01:39:14;5.50;99.90
7194;DHT22;3638;48.820;9.244;2022-11-20T01:41:43;5.50;99.90
7194;DHT22;3638;48.820;9.244;2022-11-20T01:44:43;5.50;99.90
7194;DHT22;3638;48.820;9.244;2022-11-20T01:47:17;5.50;99.90
7194;DHT22;3638;48.820;9.244;2022-11-20T01:49:50;5.40;99.90
7194;DHT22;3638;48.820;9.244;2022-11-20T01:52:22;5.40;99.90
7194;DHT22;3638;48.820;9.244;2022-11-20T01:54:54;5.40;99.90
7194;DHT22;3638;48.820;9.244;2022-11-20T01:57:25;5.40;99.90
7194;DHT22;3638;48.820;9.244;2022-11-20T02:00:00;5.40;99.90
7194;DHT22;3638;48.820;9.244;2022-11-20T02:02:29;5.40;99.90
7194;DHT22;3638;48.820;9.244;2022-11-20T02:05:00;5.50;99.90
7194;DHT22;3638;48.820;9.244;2022-11-20T02:07:31;5.50;99.90
7194;DHT22;3638;48.820;9.244;2022-11-20T02:09:58;5.50;99.90
7194;DHT22;3638;48.820;9.244;2022-11-20T02:12:25;5.50;99.90
7194;DHT22;3638;48.820;9.244;2022-11-20T02:15:11;5.60;99.90
7194;DHT22;3638;48.820;9.244;2022-11-20T02:17:38;5.60;99.90
7194;DHT22;3638;48.820;9.244;2022-11-20T02:20:06;5.70;99.90
7194;DHT22;3638;48.820;9.244;2022-11-20T02:22:39;5.70;99.90
7194;DHT22;3638;48.820;9.244;2022-11-20T02:25:10;5.80;99.90
7194;DHT22;3638;48.820;9.244;2022-11-20T02:27:37;5.90;99.90
7194;DHT22;3638;48.820;9.244;2022-11-20T02:30:06;6.00;99.90
7194;DHT22;3638;48.820;9.244;2022-11-20T02:32:35;6.00;99.90
7194;DHT22;3638;48.820;9.244;2022-11-20T02:35:07;6.10;99.90
7194;DHT22;3638;48.820;9.244;2022-11-20T02:37:38;6.20;99.90
7194;DHT22;3638;48.820;9.244;2022-11-20T02:40:07;6.10;99.90
7194;DHT22;3638;48.820;9.244;2022-11-20T02:42:36;6.10;99.90
7194;DHT22;3638;48.820;9.244;2022-11-20T02:45:04;6.10;99.90
7194;DHT22;3638;48.820;9.244;2022-11-20T02:47:32;6.10;99.90
7194;DHT22;3638;48.820;9.244;2022-11-20T02:49:59;6.10;99.90
7194;DHT22;3638;48.820;9.244;2022-11-20T02:52:26;6.10;99.90
7194;DHT22;3638;48.820;9.244;2022-11-20T02:54:53;6.10;99.90
7194;DHT22;3638;48.820;9.244;2022-11-20T02:57:20;6.20;99.90
7194;DHT22;3638;48.820;9.244;2022-11-20T02:59:49;6.20;99.90
7194;DHT22;3638;48.820;9.244;2022-11-20T03:02:16;6.10;99.90
7194;DHT22;3638;48.820;9.244;2022-11-20T03:04:42;6.10;99.90
7194;DHT22;3638;48.820;9.244;2022-11-20T03:07:09;6.20;99.90
7194;DHT22;3638;48.820;9.244;2022-11-20T03:09:36;6.30;99.90
7194;DHT22;3638;48.820;9.244;2022-11-20T03:12:04;6.30;99.90
7194;DHT22;3638;48.820;9.244;2022-11-20T03:14:31;6.30;99.90
7194;DHT22;3638;48.820;9.244;2022-11-20T03:17:00;6.30;99.90
7194;DHT22;3638;48.820;9.244;2022-11-20T03:19:27;6.30;99.90
7194;DHT22;3638;48.820;9.244;2022-11-20T03:21:54;6.40;99.90
7194;DHT22;3638;48.820;9.244;2022-11-20T03:24:20;6.40;99.90
7194;DHT22;3638;48.820;9.244;2022-11-20T03:26:47;6.30;99.90
7194;DHT22;3638;48.820;9.244;2022-11-20T03:29:14;6.20;99.90
7194;DHT22;3638;48.820;9.244;2022-11-20T03:31:41;6.20;99.90
7194;DHT22;3638;48.820;9.244;2022-11-20T03:34:11;6.20;99.90
7194;DHT22;3638;48.820;9.244;2022-11-20T03:36:39;6.10;99.90
7194;DHT22;3638;48.820;9.244;2022-11-20T03:39:08;6.10;99.90
7194;DHT22;3638;48.820;9.244;2022-11-20T03:41:37;6.10;99.90
7194;DHT22;3638;48.820;9.244;2022-11-20T03:44:07;6.10;99.90
7194;DHT22;3638;48.820;9.244;2022-11-20T03:46:35;6.10;99.90
7194;DHT22;3638;48.820;9.244;2022-11-20T03:49:03;6.10;99.90
7194;DHT22;3638;48.820;9.244;2022-11-20T03:51:33;6.10;99.90
7194;DHT22;3638;48.820;9.244;2022-11-20T03:54:03;6.10;99.90
7194;DHT22;3638;48.820;9.244;2022-11-20T03:56:36;6.10;99.90
7194;DHT22;3638;48.820;9.244;2022-11-20T03:59:04;6.10;99.90
7194;DHT22;3638;48.820;9.244;2022-11-20T04:01:33;6.10;99.90
7194;DHT22;3638;48.820;9.244;2022-11-20T04:04:02;6.20;99.90
7194;DHT22;3638;48.820;9.244;2022-11-20T04:06:33;6.10;99.90
7194;DHT22;3638;48.820;9.244;2022-11-20T04:09:01;6.10;99.90
7194;DHT22;3638;48.820;9.244;2022-11-20T04:11:29;6.10;99.90
7194;DHT22;3638;48.820;9.244;2022-11-20T04:13:58;6.00;99.90
7194;DHT22;3638;48.820;9.244;2022-11-20T04:16:29;6.10;99.90
7194;DHT22;3638;48.820;9.244;2022-11-20T04:18:58;6.10;99.90
7194;DHT22;3638;48.820;9.244;2022-11-20T04:21:26;6.10;99.90
7194;DHT22;3638;48.820;9.244;2022-11-20T04:23:55;6.10;99.90
7194;DHT22;3638;48.820;9.244;2022-11-20T04:26:24;6.10;99.90
7194;DHT22;3638;48.820;9.244;2022-11-20T04:28:53;6.10;99.90
7194;DHT22;3638;48.820;9.244;2022-11-20T04:31:21;6.10;99.90
7194;DHT22;3638;48.820;9.244;2022-11-20T04:33:49;6.20;99.90
7194;DHT22;3638;48.820;9.244;2022-11-20T04:36:18;6.10;99.90
7194;DHT22;3638;48.820;9.244;2022-11-20T04:38:46;6.10;99.90
7194;DHT22;3638;48.820;9.244;2022-11-20T04:41:19;6.00;99.90
7194;DHT22;3638;48.820;9.244;2022-11-20T04:43:47;6.00;99.90
7194;DHT22;3638;48.820;9.244;2022-11-20T04:46:15;6.00;99.90
7194;DHT22;3638;48.820;9.244;2022-11-20T04:48:43;6.00;99.90
7194;DHT22;3638;48.820;9.244;2022-11-20T04:51:10;5.90;99.90
7194;DHT22;3638;48.820;9.244;2022-11-20T04:53:38;6.00;99.90
7194;DHT22;3638;48.820;9.244;2022-11-20T04:56:06;6.10;99.90
7194;DHT22;3638;48.820;9.244;2022-11-20T04:58:37;6.00;99.90
7194;DHT22;3638;48.820;9.244;2022-11-20T05:01:05;6.00;99.90
7194;DHT22;3638;48.820;9.244;2022-11-20T05:03:34;6.20;99.90
7194;DHT22;3638;48.820;9.244;2022-11-20T05:06:01;6.20;99.90
7194;DHT22;3638;48.820;9.244;2022-11-20T05:08:29;6.20;99.90
7194;DHT22;3638;48.820;9.244;2022-11-20T05:11:00;6.20;99.90
7194;DHT22;3638;48.820;9.244;2022-11-20T05:13:28;6.30;99.90
7194;DHT22;3638;48.820;9.244;2022-11-20T05:16:01;6.30;99.90
7194;DHT22;3638;48.820;9.244;2022-11-20T05:18:28;6.30;99.90
7194;DHT22;3638;48.820;9.244;2022-11-20T05:20:56;6.30;99.90
7194;DHT22;3638;48.820;9.244;2022-11-20T05:23:23;6.30;99.90
7194;DHT22;3638;48.820;9.244;2022-11-20T05:25:52;6.30;99.90
7194;DHT22;3638;48.820;9.244;2022-11-20T05:28:20;6.40;99.90
7194;DHT22;3638;48.820;9.244;2022-11-20T05:30:47;6.40;99.90
7194;DHT22;3638;48.820;9.244;2022-11-20T05:33:16;6.40;99.90
7194;DHT22;3638;48.820;9.244;2022-11-20T05:35:44;6.40;99.90
7194;DHT22;3638;48.820;9.244;2022-11-20T05:38:11;6.40;99.90
7194;DHT22;3638;48.820;9.244;2022-11-20T05:40:38;6.40;99.90
7194;DHT22;3638;48.820;9.244;2022-11-20T05:43:04;6.40;99.90
7194;DHT22;3638;48.820;9.244;2022-11-20T05:45:31;6.60;99.90
7194;DHT22;3638;48.820;9.244;2022-11-20T05:47:59;6.60;99.90
7194;DHT22;3638;48.820;9.244;2022-11-20T05:50:28;6.60;99.90
7194;DHT22;3638;48.820;9.244;2022-11-20T05:52:57;6.60;99.90
7194;DHT22;3638;48.820;9.244;2022-11-20T05:55:24;6.60;99.90
7194;DHT22;3638;48.820;9.244;2022-11-20T05:57:52;6.60;99.90
7194;DHT22;3638;48.820;9.244;2022-11-20T06:00:20;6.70;99.90
7194;DHT22;3638;48.820;9.244;2022-11-20T06:05:14;5.20;99.90
7194;DHT22;3638;48.820;9.244;2022-11-20T06:07:42;6.90;99.90
7194;DHT22;3638;48.820;9.244;2022-11-20T06:10:09;6.80;99.90
7194;DHT22;3638;48.820;9.244;2022-11-20T06:12:37;6.80;99.90
7194;DHT22;3638;48.820;9.244;2022-11-20T06:15:05;6.70;99.90
7194;DHT22;3638;48.820;9.244;2022-11-20T06:17:33;6.70;99.90
7194;DHT22;3638;48.820;9.244;2022-11-20T06:20:00;6.70;99.90
7194;DHT22;3638;48.820;9.244;2022-11-20T06:22:27;6.80;99.90
7194;DHT22;3638;48.820;9.244;2022-11-20T06:24:55;6.70;99.90
7194;DHT22;3638;48.820;9.244;2022-11-20T06:27:22;6.60;99.90
7194;DHT22;3638;48.820;9.244;2022-11-20T06:29:49;6.70;99.90
7194;DHT22;3638;48.820;9.244;2022-11-20T06:32:16;6.70;99.90
7194;DHT22;3638;48.820;9.244;2022-11-20T06:34:43;6.70;99.90
7194;DHT22;3638;48.820;9.244;2022-11-20T06:37:10;6.60;99.90
7194;DHT22;3638;48.820;9.244;2022-11-20T06:39:36;6.60;99.90
7194;DHT22;3638;48.820;9.244;2022-11-20T06:42:05;6.60;99.90
7194;DHT22;3638;48.820;9.244;2022-11-20T06:44:32;6.60;99.90
7194;DHT22;3638;48.820;9.244;2022-11-20T06:46:59;6.60;99.90
7194;DHT22;3638;48.820;9.244;2022-11-20T06:49:26;6.60;99.90
7194;DHT22;3638;48.820;9.244;2022-11-20T06:51:53;6.60;99.90
7194;DHT22;3638;48.820;9.244;2022-11-20T06:54:20;6.60;99.90
7194;DHT22;3638;48.820;9.244;2022-11-20T06:59:15;6.60;99.90
7194;DHT22;3638;48.820;9.244;2022-11-20T07:01:42;6.60;99.90
7194;DHT22;3638;48.820;9.244;2022-11-20T07:04:09;6.50;99.90
7194;DHT22;3638;48.820;9.244;2022-11-20T07:06:36;6.50;99.90
7194;DHT22;3638;48.820;9.244;2022-11-20T07:09:03;6.50;99.90
7194;DHT22;3638;48.820;9.244;2022-11-20T07:11:30;6.60;99.90
7194;DHT22;3638;48.820;9.244;2022-11-20T07:13:57;6.60;99.90
7194;DHT22;3638;48.820;9.244;2022-11-20T07:16:25;6.60;99.90
7194;DHT22;3638;48.820;9.244;2022-11-20T07:18:52;6.60;99.90
7194;DHT22;3638;48.820;9.244;2022-11-20T07:21:19;6.70;99.90
7194;DHT22;3638;48.820;9.244;2022-11-20T07:23:46;6.60;99.90
7194;DHT22;3638;48.820;9.244;2022-11-20T07:26:13;6.70;99.90
7194;DHT22;3638;48.820;9.244;2022-11-20T07:28:43;6.70;99.90
7194;DHT22;3638;48.820;9.244;2022-11-20T07:31:10;6.80;99.90
7194;DHT22;3638;48.820;9.244;2022-11-20T07:33:39;6.80;99.90
7194;DHT22;3638;48.820;9.244;2022-11-20T07:36:07;6.80;99.90
7194;DHT22;3638;48.820;9.244;2022-11-20T07:38:34;6.90;99.90
7194;DHT22;3638;48.820;9.244;2022-11-20T07:41:01;7.00;99.90
7194;DHT22;3638;48.820;9.244;2022-11-20T07:43:28;7.20;99.90
7194;DHT22;3638;48.820;9.244;2022-11-20T07:48:24;7.30;99.90
7194;DHT22;3638;48.820;9.244;2022-11-20T07:50:54;7.30;99.90
7194;DHT22;3638;48.820;9.244;2022-11-20T07:53:22;7.30;99.90
7194;DHT22;3638;48.820;9.244;2022-11-20T07:55:50;7.30;99.90
7194;DHT22;3638;48.820;9.244;2022-11-20T07:58:18;7.40;99.90
7194;DHT22;3638;48.820;9.244;2022-11-20T08:00:45;7.40;99.90
7194;DHT22;3638;48.820;9.244;2022-11-20T08:03:12;7.40;99.90
7194;DHT22;3638;48.820;9.244;2022-11-20T08:05:39;7.40;99.90
7194;DHT22;3638;48.820;9.244;2022-11-20T08:08:08;7.40;99.90
7194;DHT22;3638;48.820;9.244;2022-11-20T08:10:35;7.30;99.90
7194;DHT22;3638;48.820;9.244;2022-11-20T08:13:01;7.40;99.90
7194;DHT22;3638;48.820;9.244;2022-11-20T08:15:48;7.40;99.90
7194;DHT22;3638;48.820;9.244;2022-11-20T08:18:16;7.30;99.90
7194;DHT22;3638;48.820;9.244;2022-11-20T08:20:44;7.40;99.90
7194;DHT22;3638;48.820;9.244;2022-11-20T08:23:12;7.30;99.90
7194;DHT22;3638;48.820;9.244;2022-11-20T08:25:39;7.50;99.90
7194;DHT22;3638;48.820;9.244;2022-11-20T08:28:08;7.60;99.90
7194;DHT22;3638;48.820;9.244;2022-11-20T08:30:36;7.60;99.90
7194;DHT22;3638;48.820;9.244;2022-11-20T08:33:05;7.60;99.90
7194;DHT22;3638;48.820;9.244;2022-11-20T08:35:34;7.70;99.90
7194;DHT22;3638;48.820;9.244;2022-11-20T08:38:02;7.70;99.90
7194;DHT22;3638;48.820;9.244;2022-11-20T08:40:31;7.80;99.90
7194;DHT22;3638;48.820;9.244;2022-11-20T08:45:26;7.70;99.90
7194;DHT22;3638;48.820;9.244;2022-11-20T08:50:20;7.70;99.90
7194;DHT22;3638;48.820;9.244;2022-11-20T08:52:47;7.90;99.90
7194;DHT22;3638;48.820;9.244;2022-11-20T08:55:15;8.00;99.90
7194;DHT22;3638;48.820;9.244;2022-11-20T08:57:43;8.10;99.90
7194;DHT22;3638;48.820;9.244;2022-11-20T09:00:11;8.20;99.90
7194;DHT22;3638;48.820;9.244;2022-11-20T09:02:39;8.30;99.90
7194;DHT22;3638;48.820;9.244;2022-11-20T09:05:06;8.30;99.90
7194;DHT22;3638;48.820;9.244;2022-11-20T09:07:33;8.20;99.90
7194;DHT22;3638;48.820;9.244;2022-11-20T09:12:29;8.20;99.90
7194;DHT22;3638;48.820;9.244;2022-11-20T09:14:57;8.20;99.90
7194;DHT22;3638;48.820;9.244;2022-11-20T09:22:18;8.30;99.90
7194;DHT22;3638;48.820;9.244;2022-11-20T09:24:45;8.30;99.90
7194;DHT22;3638;48.820;9.244;2022-11-20T09:27:12;8.40;99.90
7194;DHT22;3638;48.820;9.244;2022-11-20T09:32:08;8.40;99.90
7194;DHT22;3638;48.820;9.244;2022-11-20T09:34:35;8.40;99.90
7194;DHT22;3638;48.820;9.244;2022-11-20T09:37:02;8.40;99.90
7194;DHT22;3638;48.820;9.244;2022-11-20T09:39:29;8.30;99.90
7194;DHT22;3638;48.820;9.244;2022-11-20T09:42:04;8.40;99.90
7194;DHT22;3638;48.820;9.244;2022-11-20T09:44:48;8.50;99.90
7194;DHT22;3638;48.820;9.244;2022-11-20T09:47:30;8.40;99.90
7194;DHT22;3638;48.820;9.244;2022-11-20T09:50:16;8.40;99.90
7194;DHT22;3638;48.820;9.244;2022-11-20T09:52:57;8.30;99.90
7194;DHT22;3638;48.820;9.244;2022-11-20T09:55:45;8.30;99.90
7194;DHT22;3638;48.820;9.244;2022-11-20T09:58:24;8.30;99.90
7194;DHT22;3638;48.820;9.244;2022-11-20T10:00:57;8.30;99.90
7194;DHT22;3638;48.820;9.244;2022-11-20T10:03:37;8.30;99.90
7194;DHT22;3638;48.820;9.244;2022-11-20T10:06:12;8.30;99.90
7194;DHT22;3638;48.820;9.244;2022-11-20T10:08:45;8.30;99.90
7194;DHT22;3638;48.820;9.244;2022-11-20T10:11:22;8.20;99.90
7194;DHT22;3638;48.820;9.244;2022-11-20T10:14:02;8.30;99.90
7194;DHT22;3638;48.820;9.244;2022-11-20T10:16:44;8.30;99.90
7194;DHT22;3638;48.820;9.244;2022-11-20T10:19:35;8.10;99.90
7194;DHT22;3638;48.820;9.244;2022-11-20T10:22:20;8.10;99.90
7194;DHT22;3638;48.820;9.244;2022-11-20T10:25:02;8.20;99.90
7194;DHT22;3638;48.820;9.244;2022-11-20T10:27:44;8.20;99.90
7194;DHT22;3638;48.820;9.244;2022-11-20T10:30:20;8.00;99.90
7194;DHT22;3638;48.820;9.244;2022-11-20T10:32:52;7.90;99.90
7194;DHT22;3638;48.820;9.244;2022-11-20T10:35:27;8.00;99.90
7194;DHT22;3638;48.820;9.244;2022-11-20T10:38:00;8.00;99.90
7194;DHT22;3638;48.820;9.244;2022-11-20T10:40:33;8.10;99.90
7194;DHT22;3638;48.820;9.244;2022-11-20T10:43:03;7.90;99.90
7194;DHT22;3638;48.820;9.244;2022-11-20T10:45:43;7.90;99.90
7194;DHT22;3638;48.820;9.244;2022-11-20T10:48:20;7.80;99.90
7194;DHT22;3638;48.820;9.244;2022-11-20T10:51:11;7.80;99.90
7194;DHT22;3638;48.820;9.244;2022-11-20T10:54:06;7.80;99.90
7194;DHT22;3638;48.820;9.244;2022-11-20T10:56:40;7.90;99.90
7194;DHT22;3638;48.820;9.244;2022-11-20T10:59:33;7.90;99.90
7194;DHT22;3638;48.820;9.244;2022-11-20T11:02:16;7.80;99.90
7194;DHT22;3638;48.820;9.244;2022-11-20T11:04:46;7.70;99.90
7194;DHT22;3638;48.820;9.244;2022-11-20T11:07:16;7.90;99.90
7194;DHT22;3638;48.820;9.244;2022-11-20T11:09:48;8.00;99.90
7194;DHT22;3638;48.820;9.244;2022-11-20T11:14:46;8.20;99.90
7194;DHT22;3638;48.820;9.244;2022-11-20T11:17:26;8.20;99.90
7194;DHT22;3638;48.820;9.244;2022-11-20T11:19:59;8.10;99.90
7194;DHT22;3638;48.820;9.244;2022-11-20T11:22:29;8.10;99.90
7194;DHT22;3638;48.820;9.244;2022-11-20T11:24:56;8.10;99.90
7194;DHT22;3638;48.820;9.244;2022-11-20T11:27:23;8.20;99.90
7194;DHT22;3638;48.820;9.244;2022-11-20T11:30:02;8.20;99.90
7194;DHT22;3638;48.820;9.244;2022-11-20T11:32:38;8.20;99.90
7194;DHT22;3638;48.820;9.244;2022-11-20T11:35:11;8.60;99.90
7194;DHT22;3638;48.820;9.244;2022-11-20T11:37:47;8.50;99.90
7194;DHT22;3638;48.820;9.244;2022-11-20T11:40:15;8.70;99.90
7194;DHT22;3638;48.820;9.244;2022-11-20T11:42:46;8.80;99.90
7194;DHT22;3638;48.820;9.244;2022-11-20T11:45:19;8.80;99.90
7194;DHT22;3638;48.820;9.244;2022-11-20T11:47:47;8.70;99.90
7194;DHT22;3638;48.820;9.244;2022-11-20T11:50:16;8.90;99.90
7194;DHT22;3638;48.820;9.244;2022-11-20T11:52:51;9.10;99.90
7194;DHT22;3638;48.820;9.244;2022-11-20T11:55:31;8.90;99.90
7194;DHT22;3638;48.820;9.244;2022-11-20T11:58:08;8.90;99.90
7194;DHT22;3638;48.820;9.244;2022-11-20T12:00:40;9.00;99.90
7194;DHT22;3638;48.820;9.244;2022-11-20T12:03:15;9.00;99.90
7194;DHT22;3638;48.820;9.244;2022-11-20T12:05:49;9.00;99.90
7194;DHT22;3638;48.820;9.244;2022-11-20T12:08:23;9.10;99.90
7194;DHT22;3638;48.820;9.244;2022-11-20T12:10:56;9.20;99.90
7194;DHT22;3638;48.820;9.244;2022-11-20T12:13:36;9.70;99.90
7194;DHT22;3638;48.820;9.244;2022-11-20T12:16:11;9.30;99.90
7194;DHT22;3638;48.820;9.244;2022-11-20T12:18:40;9.30;99.90
7194;DHT22;3638;48.820;9.244;2022-11-20T12:21:17;9.30;99.90
7194;DHT22;3638;48.820;9.244;2022-11-20T12:24:10;9.30;99.90
7194;DHT22;3638;48.820;9.244;2022-11-20T12:27:03;9.40;99.90
7194;DHT22;3638;48.820;9.244;2022-11-20T12:29:46;9.40;99.90
7194;DHT22;3638;48.820;9.244;2022-11-20T12:35:38;9.40;99.90
7194;DHT22;3638;48.820;9.244;2022-11-20T12:38:38;9.30;99.90
7194;DHT22;3638;48.820;9.244;2022-11-20T12:41:51;9.30;99.90
7194;DHT22;3638;48.820;9.244;2022-11-20T12:45:14;9.20;99.90
7194;DHT22;3638;48.820;9.244;2022-11-20T12:48:18;9.30;99.90
7194;DHT22;3638;48.820;9.244;2022-11-20T12:51:26;9.30;99.90
7194;DHT22;3638;48.820;9.244;2022-11-20T12:57:21;9.10;99.90
7194;DHT22;3638;48.820;9.244;2022-11-20T13:00:07;9.10;99.90
7194;DHT22;3638;48.820;9.244;2022-11-20T13:02:45;9.00;99.90
7194;DHT22;3638;48.820;9.244;2022-11-20T13:05:31;9.10;99.90
7194;DHT22;3638;48.820;9.244;2022-11-20T13:08:08;9.30;99.90
7194;DHT22;3638;48.820;9.244;2022-11-20T13:10:46;9.30;99.90
7194;DHT22;3638;48.820;9.244;2022-11-20T13:13:24;9.30;99.90
7194;DHT22;3638;48.820;9.244;2022-11-20T13:16:00;9.30;99.90
7194;DHT22;3638;48.820;9.244;2022-11-20T13:18:37;9.30;99.90
7194;DHT22;3638;48.820;9.244;2022-11-20T13:21:14;9.30;99.90
7194;DHT22;3638;48.820;9.244;2022-11-20T13:23:42;9.40;99.90
7194;DHT22;3638;48.820;9.244;2022-11-20T13:26:20;9.40;99.90
7194;DHT22;3638;48.820;9.244;2022-11-20T13:29:08;9.50;99.90
7194;DHT22;3638;48.820;9.244;2022-11-20T13:31:41;9.50;99.90
7194;DHT22;3638;48.820;9.244;2022-11-20T13:34:13;9.50;99.90
7194;DHT22;3638;48.820;9.244;2022-11-20T13:36:50;9.40;99.90
7194;DHT22;3638;48.820;9.244;2022-11-20T13:39:24;9.40;99.90
7194;DHT22;3638;48.820;9.244;2022-11-20T13:41:54;9.40;99.90
7194;DHT22;3638;48.820;9.244;2022-11-20T13:44:28;9.70;99.90
7194;DHT22;3638;48.820;9.244;2022-11-20T13:46:58;9.20;99.90
7194;DHT22;3638;48.820;9.244;2022-11-20T13:49:31;9.20;99.90
7194;DHT22;3638;48.820;9.244;2022-11-20T13:52:08;9.70;99.90
7194;DHT22;3638;48.820;9.244;2022-11-20T13:55:10;9.30;99.90
7194;DHT22;3638;48.820;9.244;2022-11-20T13:57:59;9.20;99.90
7194;DHT22;3638;48.820;9.244;2022-11-20T14:00:43;9.10;99.90
7194;DHT22;3638;48.820;9.244;2022-11-20T14:03:31;9.10;99.90
7194;DHT22;3638;48.820;9.244;2022-11-20T14:06:03;9.10;99.90
7194;DHT22;3638;48.820;9.244;2022-11-20T14:08:37;9.10;99.90
7194;DHT22;3638;48.820;9.244;2022-11-20T14:11:14;9.10;99.90
7194;DHT22;3638;48.820;9.244;2022-11-20T14:13:58;9.20;99.90
7194;DHT22;3638;48.820;9.244;2022-11-20T14:16:28;9.20;99.90
7194;DHT22;3638;48.820;9.244;2022-11-20T14:19:23;9.20;99.90
7194;DHT22;3638;48.820;9.244;2022-11-20T14:21:54;9.10;99.90
7194;DHT22;3638;48.820;9.244;2022-11-20T14:24:34;9.10;99.90
7194;DHT22;3638;48.820;9.244;2022-11-20T14:27:01;8.90;99.90
7194;DHT22;3638;48.820;9.244;2022-11-20T14:29:30;8.70;99.90
7194;DHT22;3638;48.820;9.244;2022-11-20T14:32:04;8.70;99.90
7194;DHT22;3638;48.820;9.244;2022-11-20T14:34:37;8.60;99.90
7194;DHT22;3638;48.820;9.244;2022-11-20T14:37:11;8.50;99.90
7194;DHT22;3638;48.820;9.244;2022-11-20T14:39:41;8.40;99.90
7194;DHT22;3638;48.820;9.244;2022-11-20T14:42:15;8.40;99.90
7194;DHT22;3638;48.820;9.244;2022-11-20T14:44:44;8.40;99.90
7194;DHT22;3638;48.820;9.244;2022-11-20T14:47:12;8.40;99.90
7194;DHT22;3638;48.820;9.244;2022-11-20T14:49:43;8.40;99.90
7194;DHT22;3638;48.820;9.244;2022-11-20T14:52:13;8.40;99.90
7194;DHT22;3638;48.820;9.244;2022-11-20T14:54:46;8.30;99.90
7194;DHT22;3638;48.820;9.244;2022-11-20T14:57:23;8.30;99.90
7194;DHT22;3638;48.820;9.244;2022-11-20T14:59:51;8.20;99.90
7194;DHT22;3638;48.820;9.244;2022-11-20T15:02:30;8.00;99.90
7194;DHT22;3638;48.820;9.244;2022-11-20T15:05:00;8.00;99.90
7194;DHT22;3638;48.820;9.244;2022-11-20T15:07:31;7.90;99.90
7194;DHT22;3638;48.820;9.244;2022-11-20T15:10:02;7.80;99.90
7194;DHT22;3638;48.820;9.244;2022-11-20T15:12:30;7.70;99.90
7194;DHT22;3638;48.820;9.244;2022-11-20T15:14:58;7.70;99.90
7194;DHT22;3638;48.820;9.244;2022-11-20T15:17:27;7.70;99.90
7194;DHT22;3638;48.820;9.244;2022-11-20T15:19:55;7.60;99.90
7194;DHT22;3638;48.820;9.244;2022-11-20T15:22:23;7.60;99.90
7194;DHT22;3638;48.820;9.244;2022-11-20T15:24:50;7.60;99.90
7194;DHT22;3638;48.820;9.244;2022-11-20T15:27:17;7.60;99.90
7194;DHT22;3638;48.820;9.244;2022-11-20T15:32:11;7.50;99.90
7194;DHT22;3638;48.820;9.244;2022-11-20T15:34:38;7.50;99.90
7194;DHT22;3638;48.820;9.244;2022-11-20T15:37:05;7.40;99.90
7194;DHT22;3638;48.820;9.244;2022-11-20T15:39:33;7.40;99.90
7194;DHT22;3638;48.820;9.244;2022-11-20T15:42:00;7.40;99.90
7194;DHT22;3638;48.820;9.244;2022-11-20T15:44:27;7.60;99.90
7194;DHT22;3638;48.820;9.244;2022-11-20T15:46:54;7.30;99.90
7194;DHT22;3638;48.820;9.244;2022-11-20T15:49:21;7.30;99.90
7194;DHT22;3638;48.820;9.244;2022-11-20T15:51:49;7.20;99.90
7194;DHT22;3638;48.820;9.244;2022-11-20T15:54:19;7.20;99.90
7194;DHT22;3638;48.820;9.244;2022-11-20T15:56:49;7.20;99.90
7194;DHT22;3638;48.820;9.244;2022-11-20T15:59:17;7.10;99.90
7194;DHT22;3638;48.820;9.244;2022-11-20T16:01:45;7.10;99.90
7194;DHT22;3638;48.820;9.244;2022-11-20T16:04:13;7.00;99.90
7194;DHT22;3638;48.820;9.244;2022-11-20T16:06:41;7.00;99.90
7194;DHT22;3638;48.820;9.244;2022-11-20T16:09:08;7.00;99.90
7194;DHT22;3638;48.820;9.244;2022-11-20T16:11:36;6.90;99.90
7194;DHT22;3638;48.820;9.244;2022-11-20T16:14:04;6.90;99.90
7194;DHT22;3638;48.820;9.244;2022-11-20T16:16:49;6.90;99.90
7194;DHT22;3638;48.820;9.244;2022-11-20T16:19:17;6.90;99.90
7194;DHT22;3638;48.820;9.244;2022-11-20T16:21:44;6.90;99.90
7194;DHT22;3638;48.820;9.244;2022-11-20T16:24:13;6.80;99.90
7194;DHT22;3638;48.820;9.244;2022-11-20T16:26:40;6.80;99.90
7194;DHT22;3638;48.820;9.244;2022-11-20T16:29:09;6.80;99.90
7194;DHT22;3638;48.820;9.244;2022-11-20T16:31:37;6.80;99.90
7194;DHT22;3638;48.820;9.244;2022-11-20T16:34:06;6.80;99.90
7194;DHT22;3638;48.820;9.244;2022-11-20T16:36:33;6.80;99.90
7194;DHT22;3638;48.820;9.244;2022-11-20T16:39:02;6.80;99.90
7194;DHT22;3638;48.820;9.244;2022-11-20T16:41:31;6.80;99.90
7194;DHT22;3638;48.820;9.244;2022-11-20T16:44:01;6.80;99.90
7194;DHT22;3638;48.820;9.244;2022-11-20T16:46:31;6.90;99.90
7194;DHT22;3638;48.820;9.244;2022-11-20T16:49:00;6.90;99.90
7194;DHT22;3638;48.820;9.244;2022-11-20T16:51:30;7.00;99.90
7194;DHT22;3638;48.820;9.244;2022-11-20T16:54:00;7.00;99.90
7194;DHT22;3638;48.820;9.244;2022-11-20T16:56:27;7.00;99.90
7194;DHT22;3638;48.820;9.244;2022-11-20T16:58:56;7.00;99.90
7194;DHT22;3638;48.820;9.244;2022-11-20T17:01:26;7.00;99.90
7194;DHT22;3638;48.820;9.244;2022-11-20T17:03:56;7.00;99.90
7194;DHT22;3638;48.820;9.244;2022-11-20T17:06:26;7.00;99.90
7194;DHT22;3638;48.820;9.244;2022-11-20T17:08:55;7.10;99.90
7194;DHT22;3638;48.820;9.244;2022-11-20T17:11:24;7.10;99.90
7194;DHT22;3638;48.820;9.244;2022-11-20T17:13:51;7.10;99.90
7194;DHT22;3638;48.820;9.244;2022-11-20T17:16:22;7.10;99.90